createdAt,value
2016-10-20T00:00:12.398Z,922.81
2016-10-20T00:00:29.220Z,922.8
2016-10-20T00:00:46.363Z,922.84
2016-10-20T00:01:03.127Z,922.82
2016-10-20T00:01:19.902Z,922.82
2016-10-20T00:01:36.641Z,922.81
2016-10-20T00:01:53.385Z,922.83
2016-10-20T00:02:10.135Z,922.85
2016-10-20T00:02:26.907Z,922.82
2016-10-20T00:02:43.655Z,922.87
2016-10-20T00:03:00.371Z,922.89
2016-10-20T00:03:17.114Z,922.89
2016-10-20T00:03:33.832Z,922.89
2016-10-20T00:03:50.593Z,922.87
2016-10-20T00:04:07.352Z,922.92
2016-10-20T00:04:24.114Z,922.94
2016-10-20T00:04:40.843Z,922.96
2016-10-20T00:04:57.636Z,922.97
2016-10-20T00:05:14.407Z,922.96
2016-10-20T00:05:31.152Z,923
2016-10-20T00:05:47.864Z,923.01
2016-10-20T00:06:06.074Z,922.96
2016-10-20T00:06:22.826Z,922.98
2016-10-20T00:06:39.576Z,923.01
2016-10-20T00:06:56.325Z,923.04
2016-10-20T00:07:13.091Z,923.03
2016-10-20T00:07:29.882Z,923.07
2016-10-20T00:07:46.688Z,923.07
2016-10-20T00:08:03.398Z,923.07
2016-10-20T00:08:20.131Z,923.07
2016-10-20T00:08:36.882Z,923.08
2016-10-20T00:08:53.665Z,923.06
2016-10-20T00:09:10.418Z,923.08
2016-10-20T00:09:27.678Z,923.12
2016-10-20T00:09:44.431Z,923.11
2016-10-20T00:10:01.675Z,923.14
2016-10-20T00:10:18.441Z,923.11
2016-10-20T00:10:35.181Z,923.15
2016-10-20T00:10:52.015Z,923.12
2016-10-20T00:11:08.765Z,923.17
2016-10-20T00:11:25.541Z,923.16
2016-10-20T00:11:42.299Z,923.14
2016-10-20T00:11:59.074Z,923.17
2016-10-20T00:12:15.826Z,923.18
2016-10-20T00:12:33.106Z,923.17
2016-10-20T00:12:49.839Z,923.22
2016-10-20T00:13:06.587Z,923.25
2016-10-20T00:13:23.339Z,923.21
2016-10-20T00:13:40.089Z,923.28
2016-10-20T00:13:56.858Z,923.22
2016-10-20T00:14:13.606Z,923.26
2016-10-20T00:14:30.352Z,923.23
2016-10-20T00:14:47.130Z,923.28
2016-10-20T00:15:03.897Z,923.31
2016-10-20T00:15:20.645Z,923.23
2016-10-20T00:15:37.440Z,923.27
2016-10-20T00:15:54.192Z,923.33
2016-10-20T00:16:10.944Z,923.28
2016-10-20T00:16:27.704Z,923.28
2016-10-20T00:16:44.462Z,923.3
2016-10-20T00:17:01.240Z,923.28
2016-10-20T00:17:17.997Z,923.29
2016-10-20T00:17:34.760Z,923.32
2016-10-20T00:17:51.535Z,923.32
2016-10-20T00:18:08.296Z,923.29
2016-10-20T00:18:25.062Z,923.33
2016-10-20T00:18:41.804Z,923.34
2016-10-20T00:18:58.540Z,923.34
2016-10-20T00:19:15.302Z,923.32
2016-10-20T00:19:32.035Z,923.33
2016-10-20T00:19:48.780Z,923.3
2016-10-20T00:20:05.712Z,923.33
2016-10-20T00:20:22.529Z,923.36
2016-10-20T00:20:39.345Z,923.35
2016-10-20T00:20:56.092Z,923.34
2016-10-20T00:21:12.863Z,923.36
2016-10-20T00:21:29.618Z,923.32
2016-10-20T00:21:46.393Z,923.36
2016-10-20T00:22:03.127Z,923.33
2016-10-20T00:22:19.888Z,923.38
2016-10-20T00:22:36.630Z,923.41
2016-10-20T00:22:53.420Z,923.34
2016-10-20T00:23:10.138Z,923.34
2016-10-20T00:23:26.893Z,923.36
2016-10-20T00:23:43.642Z,923.36
2016-10-20T00:24:00.414Z,923.34
2016-10-20T00:24:17.169Z,923.38
2016-10-20T00:24:34.449Z,923.38
2016-10-20T00:24:51.193Z,923.35
2016-10-20T00:25:07.945Z,923.39
2016-10-20T00:25:24.708Z,923.4
2016-10-20T00:25:41.501Z,923.44
2016-10-20T00:25:58.361Z,923.45
2016-10-20T00:26:15.107Z,923.4
2016-10-20T00:26:31.919Z,923.42
2016-10-20T00:26:48.658Z,923.41
2016-10-20T00:27:05.400Z,923.42
2016-10-20T00:27:22.164Z,923.47
2016-10-20T00:27:38.949Z,923.46
2016-10-20T00:27:55.699Z,923.48
2016-10-20T00:28:12.451Z,923.5
2016-10-20T00:28:29.197Z,923.48
2016-10-20T00:28:45.924Z,923.49
2016-10-20T00:29:02.689Z,923.52
2016-10-20T00:29:19.457Z,923.53
2016-10-20T00:29:36.201Z,923.56
2016-10-20T00:29:52.941Z,923.51
2016-10-20T00:30:24.195Z,923.53
2016-10-20T00:30:40.935Z,923.56
2016-10-20T00:30:57.802Z,923.59
2016-10-20T00:31:14.598Z,923.56
2016-10-20T00:31:31.365Z,923.57
2016-10-20T00:31:48.122Z,923.61
2016-10-20T00:32:04.872Z,923.59
2016-10-20T00:32:21.593Z,923.6
2016-10-20T00:32:38.346Z,923.52
2016-10-20T00:32:55.097Z,923.57
2016-10-20T00:33:11.864Z,923.57
2016-10-20T00:33:28.624Z,923.58
2016-10-20T00:33:45.365Z,923.57
2016-10-20T00:34:02.139Z,923.57
2016-10-20T00:34:19.437Z,923.59
2016-10-20T00:34:36.211Z,923.58
2016-10-20T00:34:53.009Z,923.54
2016-10-20T00:35:09.759Z,923.57
2016-10-20T00:35:26.517Z,923.51
2016-10-20T00:35:43.262Z,923.54
2016-10-20T00:36:00.022Z,923.57
2016-10-20T00:36:16.834Z,923.63
2016-10-20T00:36:33.604Z,923.64
2016-10-20T00:36:50.351Z,923.6
2016-10-20T00:37:07.123Z,923.66
2016-10-20T00:37:24.422Z,923.65
2016-10-20T00:37:41.202Z,923.68
2016-10-20T00:37:57.946Z,923.67
2016-10-20T00:38:14.695Z,923.67
2016-10-20T00:38:31.434Z,923.7
2016-10-20T00:38:48.250Z,923.75
2016-10-20T00:39:05.008Z,923.71
2016-10-20T00:39:21.748Z,923.72
2016-10-20T00:39:38.471Z,923.77
2016-10-20T00:39:55.246Z,923.77
2016-10-20T00:40:12.003Z,923.81
2016-10-20T00:40:28.751Z,923.8
2016-10-20T00:40:45.574Z,923.84
2016-10-20T00:41:02.454Z,923.81
2016-10-20T00:41:19.745Z,923.82
2016-10-20T00:41:36.501Z,923.76
2016-10-20T00:41:53.293Z,923.85
2016-10-20T00:42:10.044Z,923.83
2016-10-20T00:42:26.814Z,923.83
2016-10-20T00:42:43.557Z,923.85
2016-10-20T00:43:00.325Z,923.84
2016-10-20T00:43:17.112Z,923.88
2016-10-20T00:43:33.881Z,923.9
2016-10-20T00:43:50.639Z,923.85
2016-10-20T00:44:07.915Z,923.86
2016-10-20T00:44:25.411Z,923.89
2016-10-20T00:44:42.154Z,923.84
2016-10-20T00:44:58.903Z,923.86
2016-10-20T00:45:16.156Z,923.86
2016-10-20T00:45:32.891Z,923.87
2016-10-20T00:45:49.657Z,923.9
2016-10-20T00:46:06.426Z,923.87
2016-10-20T00:46:23.133Z,923.89
2016-10-20T00:46:39.867Z,923.87
2016-10-20T00:46:56.613Z,923.86
2016-10-20T00:47:13.362Z,923.82
2016-10-20T00:47:30.127Z,923.84
2016-10-20T00:47:46.871Z,923.79
2016-10-20T00:48:03.595Z,923.81
2016-10-20T00:48:20.332Z,923.81
2016-10-20T00:48:37.090Z,923.83
2016-10-20T00:48:53.824Z,923.8
2016-10-20T00:49:10.545Z,923.83
2016-10-20T00:49:27.268Z,923.82
2016-10-20T00:49:44.001Z,923.83
2016-10-20T00:50:00.711Z,923.84
2016-10-20T00:50:17.433Z,923.82
2016-10-20T00:50:34.160Z,923.79
2016-10-20T00:50:50.864Z,923.84
2016-10-20T00:51:07.603Z,923.82
2016-10-20T00:51:24.331Z,923.83
2016-10-20T00:51:41.068Z,923.83
2016-10-20T00:51:57.811Z,923.78
2016-10-20T00:52:14.544Z,923.82
2016-10-20T00:52:31.275Z,923.8
2016-10-20T00:52:47.988Z,923.83
2016-10-20T00:53:04.742Z,923.81
2016-10-20T00:53:21.442Z,923.82
2016-10-20T00:53:38.137Z,923.8
2016-10-20T00:53:54.859Z,923.81
2016-10-20T00:54:11.592Z,923.82
2016-10-20T00:54:28.309Z,923.78
2016-10-20T00:54:45.038Z,923.79
2016-10-20T00:55:01.796Z,923.79
2016-10-20T00:55:18.527Z,923.79
2016-10-20T00:55:35.241Z,923.79
2016-10-20T00:55:51.945Z,923.79
2016-10-20T00:56:08.769Z,923.79
2016-10-20T00:56:25.501Z,923.8
2016-10-20T00:56:42.730Z,923.84
2016-10-20T00:56:59.660Z,923.77
2016-10-20T00:57:16.941Z,923.75
2016-10-20T00:57:33.651Z,923.79
2016-10-20T00:57:50.427Z,923.79
2016-10-20T00:58:07.157Z,923.77
2016-10-20T00:58:23.880Z,923.75
2016-10-20T00:58:40.620Z,923.76
2016-10-20T00:58:57.353Z,923.76
2016-10-20T00:59:14.080Z,923.74
2016-10-20T00:59:30.777Z,923.73
2016-10-20T00:59:47.510Z,923.76
2016-10-20T01:00:04.196Z,923.72
2016-10-20T01:00:20.925Z,923.8
2016-10-20T01:00:37.636Z,923.75
2016-10-20T01:00:54.354Z,923.72
2016-10-20T01:01:11.198Z,923.68
2016-10-20T01:01:27.929Z,923.76
2016-10-20T01:01:44.661Z,923.74
2016-10-20T01:02:01.382Z,923.73
2016-10-20T01:02:18.128Z,923.75
2016-10-20T01:02:34.861Z,923.78
2016-10-20T01:02:51.599Z,923.73
2016-10-20T01:03:08.332Z,923.76
2016-10-20T01:03:25.080Z,923.75
2016-10-20T01:03:41.836Z,923.72
2016-10-20T01:03:58.581Z,923.69
2016-10-20T01:04:15.325Z,923.72
2016-10-20T01:04:32.068Z,923.75
2016-10-20T01:04:48.789Z,923.74
2016-10-20T01:05:05.507Z,923.76
2016-10-20T01:05:22.221Z,923.75
2016-10-20T01:05:38.922Z,923.74
2016-10-20T01:05:55.651Z,923.79
2016-10-20T01:06:12.402Z,923.75
2016-10-20T01:06:29.113Z,923.75
2016-10-20T01:06:45.855Z,923.82
2016-10-20T01:07:02.585Z,923.78
2016-10-20T01:07:19.313Z,923.77
2016-10-20T01:07:36.047Z,923.81
2016-10-20T01:07:52.750Z,923.78
2016-10-20T01:08:09.470Z,923.79
2016-10-20T01:08:26.221Z,923.84
2016-10-20T01:08:42.931Z,923.67
2016-10-20T01:08:59.636Z,923.71
2016-10-20T01:09:16.429Z,923.79
2016-10-20T01:09:33.186Z,923.73
2016-10-20T01:10:21.129Z,923.68
2016-10-20T01:10:37.871Z,923.64
2016-10-20T01:10:54.588Z,923.67
2016-10-20T01:11:11.312Z,923.68
2016-10-20T01:11:28.027Z,923.68
2016-10-20T01:11:44.746Z,923.69
2016-10-20T01:12:01.506Z,923.73
2016-10-20T01:12:18.247Z,923.7
2016-10-20T01:12:34.985Z,923.73
2016-10-20T01:12:51.685Z,923.68
2016-10-20T01:13:08.390Z,923.72
2016-10-20T01:13:25.089Z,923.72
2016-10-20T01:13:41.795Z,923.78
2016-10-20T01:13:58.548Z,923.7
2016-10-20T01:14:15.800Z,923.72
2016-10-20T01:14:32.507Z,923.74
2016-10-20T01:14:49.214Z,923.73
2016-10-20T01:15:05.931Z,923.73
2016-10-20T01:15:22.651Z,923.76
2016-10-20T01:15:39.431Z,923.77
2016-10-20T01:15:56.175Z,923.78
2016-10-20T01:16:12.918Z,923.79
2016-10-20T01:16:29.825Z,923.81
2016-10-20T01:16:46.549Z,923.79
2016-10-20T01:17:03.246Z,923.84
2016-10-20T01:17:19.975Z,923.81
2016-10-20T01:17:36.685Z,923.86
2016-10-20T01:17:53.372Z,923.84
2016-10-20T01:18:10.095Z,923.89
2016-10-20T01:18:26.851Z,923.89
2016-10-20T01:18:43.609Z,923.88
2016-10-20T01:19:00.295Z,923.91
2016-10-20T01:19:16.998Z,923.87
2016-10-20T01:19:33.725Z,923.92
2016-10-20T01:19:50.521Z,923.95
2016-10-20T01:20:07.329Z,923.92
2016-10-20T01:20:24.026Z,923.92
2016-10-20T01:20:40.764Z,923.92
2016-10-20T01:20:57.478Z,923.91
2016-10-20T01:21:14.216Z,923.93
2016-10-20T01:21:30.947Z,923.93
2016-10-20T01:21:47.760Z,923.96
2016-10-20T01:22:04.458Z,923.96
2016-10-20T01:22:21.203Z,923.96
2016-10-20T01:22:38.667Z,923.93
2016-10-20T01:22:55.367Z,923.96
2016-10-20T01:23:12.065Z,923.93
2016-10-20T01:23:28.821Z,923.93
2016-10-20T01:23:45.519Z,923.99
2016-10-20T01:24:02.221Z,923.96
2016-10-20T01:24:18.954Z,923.96
2016-10-20T01:24:35.700Z,923.97
2016-10-20T01:24:52.459Z,923.99
2016-10-20T01:25:09.226Z,923.98
2016-10-20T01:25:26.479Z,923.96
2016-10-20T01:25:43.217Z,923.94
2016-10-20T01:25:59.919Z,923.95
2016-10-20T01:26:16.736Z,923.95
2016-10-20T01:26:33.512Z,923.96
2016-10-20T01:26:50.454Z,923.97
2016-10-20T01:27:07.179Z,923.96
2016-10-20T01:27:23.885Z,923.98
2016-10-20T01:27:40.612Z,923.97
2016-10-20T01:27:57.338Z,923.98
2016-10-20T01:28:14.567Z,923.94
2016-10-20T01:28:31.286Z,923.94
2016-10-20T01:28:47.991Z,923.96
2016-10-20T01:29:19.231Z,923.96
2016-10-20T01:29:35.941Z,923.99
2016-10-20T01:29:52.663Z,923.91
2016-10-20T01:30:09.386Z,923.96
2016-10-20T01:30:26.110Z,923.93
2016-10-20T01:30:42.816Z,923.94
2016-10-20T01:30:59.525Z,923.93
2016-10-20T01:31:16.228Z,923.96
2016-10-20T01:31:32.934Z,923.93
2016-10-20T01:31:49.651Z,923.94
2016-10-20T01:32:06.415Z,923.95
2016-10-20T01:32:23.144Z,923.94
2016-10-20T01:32:39.875Z,923.96
2016-10-20T01:32:56.591Z,923.94
2016-10-20T01:33:13.860Z,923.91
2016-10-20T01:33:30.666Z,923.86
2016-10-20T01:33:47.437Z,923.89
2016-10-20T01:34:04.196Z,923.91
2016-10-20T01:34:20.961Z,923.88
2016-10-20T01:34:37.676Z,923.9
2016-10-20T01:34:54.431Z,923.93
2016-10-20T01:35:11.675Z,923.86
2016-10-20T01:35:28.394Z,923.9
2016-10-20T01:35:45.082Z,923.9
2016-10-20T01:36:01.828Z,923.92
2016-10-20T01:36:18.557Z,923.93
2016-10-20T01:36:35.282Z,923.93
2016-10-20T01:36:52.000Z,923.94
2016-10-20T01:37:08.727Z,923.95
2016-10-20T01:37:25.442Z,923.89
2016-10-20T01:37:42.177Z,923.89
2016-10-20T01:37:58.913Z,923.92
2016-10-20T01:38:15.657Z,923.88
2016-10-20T01:38:32.396Z,923.89
2016-10-20T01:38:49.153Z,923.92
2016-10-20T01:39:05.881Z,923.91
2016-10-20T01:39:22.609Z,923.9
2016-10-20T01:39:39.320Z,923.91
2016-10-20T01:39:56.076Z,923.93
2016-10-20T01:40:12.851Z,923.91
2016-10-20T01:40:29.588Z,923.9
2016-10-20T01:40:46.399Z,923.92
2016-10-20T01:41:03.107Z,923.96
2016-10-20T01:41:19.921Z,923.89
2016-10-20T01:41:36.646Z,923.92
2016-10-20T01:41:53.559Z,923.89
2016-10-20T01:42:10.310Z,923.89
2016-10-20T01:42:27.063Z,923.88
2016-10-20T01:42:43.871Z,923.88
2016-10-20T01:43:00.582Z,923.9
2016-10-20T01:43:17.300Z,923.89
2016-10-20T01:43:34.055Z,923.91
2016-10-20T01:43:50.769Z,923.92
2016-10-20T01:44:07.497Z,923.92
2016-10-20T01:44:24.224Z,923.93
2016-10-20T01:44:40.976Z,923.89
2016-10-20T01:44:57.685Z,923.86
2016-10-20T01:45:14.906Z,923.91
2016-10-20T01:45:31.624Z,923.87
2016-10-20T01:45:48.362Z,923.84
2016-10-20T01:46:05.257Z,923.88
2016-10-20T01:46:22.480Z,923.91
2016-10-20T01:46:39.256Z,923.92
2016-10-20T01:46:55.962Z,923.9
2016-10-20T01:47:12.666Z,923.87
2016-10-20T01:47:29.389Z,923.91
2016-10-20T01:47:46.145Z,923.9
2016-10-20T01:48:02.851Z,923.87
2016-10-20T01:48:19.580Z,923.85
2016-10-20T01:48:36.290Z,923.86
2016-10-20T01:48:53.007Z,923.86
2016-10-20T01:49:09.726Z,923.9
2016-10-20T01:49:26.463Z,923.88
2016-10-20T01:49:43.162Z,923.88
2016-10-20T01:49:59.896Z,923.88
2016-10-20T01:50:17.366Z,923.85
2016-10-20T01:50:34.119Z,923.85
2016-10-20T01:50:50.823Z,923.9
2016-10-20T01:51:07.559Z,923.9
2016-10-20T01:51:24.298Z,923.89
2016-10-20T01:51:41.334Z,923.88
2016-10-20T01:51:58.200Z,923.88
2016-10-20T01:52:14.949Z,923.86
2016-10-20T01:52:31.742Z,923.85
2016-10-20T01:52:48.481Z,923.86
2016-10-20T01:53:05.196Z,923.85
2016-10-20T01:53:21.912Z,923.83
2016-10-20T01:53:38.642Z,923.85
2016-10-20T01:53:55.334Z,923.86
2016-10-20T01:54:12.056Z,923.84
2016-10-20T01:54:28.788Z,923.85
2016-10-20T01:54:46.248Z,923.88
2016-10-20T01:55:02.972Z,923.87
2016-10-20T01:55:19.725Z,923.82
2016-10-20T01:55:36.450Z,923.84
2016-10-20T01:55:53.181Z,923.84
2016-10-20T01:56:09.916Z,923.85
2016-10-20T01:56:26.745Z,923.84
2016-10-20T01:56:43.453Z,923.81
2016-10-20T01:57:00.245Z,923.85
2016-10-20T01:57:16.944Z,923.78
2016-10-20T01:57:33.695Z,923.8
2016-10-20T01:57:50.442Z,923.78
2016-10-20T01:58:07.138Z,923.83
2016-10-20T01:58:23.875Z,923.77
2016-10-20T01:58:41.092Z,923.77
2016-10-20T01:58:57.810Z,923.78
2016-10-20T01:59:14.583Z,923.8
2016-10-20T01:59:31.356Z,923.78
2016-10-20T01:59:48.119Z,923.76
2016-10-20T02:00:04.845Z,923.76
2016-10-20T02:00:21.558Z,923.73
2016-10-20T02:00:38.290Z,923.72
2016-10-20T02:00:55.002Z,923.69
2016-10-20T02:01:11.938Z,923.69
2016-10-20T02:01:28.854Z,923.72
2016-10-20T02:01:45.559Z,923.73
2016-10-20T02:02:02.298Z,923.72
2016-10-20T02:02:19.025Z,923.7
2016-10-20T02:02:35.741Z,923.7
2016-10-20T02:02:52.487Z,923.73
2016-10-20T02:03:09.217Z,923.71
2016-10-20T02:03:25.941Z,923.72
2016-10-20T02:03:42.702Z,923.72
2016-10-20T02:03:59.433Z,923.72
2016-10-20T02:04:16.147Z,923.73
2016-10-20T02:04:32.893Z,923.73
2016-10-20T02:04:49.595Z,923.74
2016-10-20T02:05:06.308Z,923.75
2016-10-20T02:05:23.022Z,923.76
2016-10-20T02:05:39.748Z,923.77
2016-10-20T02:05:56.470Z,923.76
2016-10-20T02:06:13.154Z,923.73
2016-10-20T02:06:29.983Z,923.74
2016-10-20T02:06:46.683Z,923.78
2016-10-20T02:07:03.416Z,923.82
2016-10-20T02:07:20.159Z,923.8
2016-10-20T02:07:37.654Z,923.81
2016-10-20T02:07:54.374Z,923.8
2016-10-20T02:08:11.101Z,923.83
2016-10-20T02:08:27.828Z,923.83
2016-10-20T02:08:44.545Z,923.85
2016-10-20T02:09:01.268Z,923.86
2016-10-20T02:09:17.989Z,923.91
2016-10-20T02:09:34.682Z,923.93
2016-10-20T02:09:51.391Z,923.93
2016-10-20T02:10:08.089Z,923.93
2016-10-20T02:10:24.818Z,923.97
2016-10-20T02:10:41.534Z,923.98
2016-10-20T02:10:58.231Z,924
2016-10-20T02:11:14.921Z,924.01
2016-10-20T02:11:31.756Z,923.96
2016-10-20T02:11:48.464Z,924.01
2016-10-20T02:12:05.159Z,924.02
2016-10-20T02:12:22.412Z,924.07
2016-10-20T02:12:39.162Z,924.08
2016-10-20T02:12:55.870Z,924.07
2016-10-20T02:13:12.596Z,924.07
2016-10-20T02:13:29.315Z,924.05
2016-10-20T02:13:46.038Z,924.07
2016-10-20T02:14:03.282Z,924.08
2016-10-20T02:14:19.977Z,924.14
2016-10-20T02:14:36.729Z,924.11
2016-10-20T02:14:53.430Z,924.12
2016-10-20T02:15:10.462Z,924.07
2016-10-20T02:15:27.170Z,924.08
2016-10-20T02:15:43.892Z,924.1
2016-10-20T02:16:00.689Z,924.15
2016-10-20T02:16:17.401Z,924.1
2016-10-20T02:16:34.114Z,924.15
2016-10-20T02:16:50.816Z,924.16
2016-10-20T02:17:07.557Z,924.17
2016-10-20T02:17:24.431Z,924.14
2016-10-20T02:17:41.176Z,924.11
2016-10-20T02:17:57.883Z,924.16
2016-10-20T02:18:14.605Z,924.18
2016-10-20T02:18:31.359Z,924.18
2016-10-20T02:18:48.146Z,924.21
2016-10-20T02:19:04.860Z,924.23
2016-10-20T02:19:21.639Z,924.2
2016-10-20T02:19:38.371Z,924.18
2016-10-20T02:19:55.081Z,924.16
2016-10-20T02:20:11.824Z,924.18
2016-10-20T02:20:28.554Z,924.18
2016-10-20T02:20:45.273Z,924.18
2016-10-20T02:21:01.977Z,924.16
2016-10-20T02:21:18.685Z,924.2
2016-10-20T02:21:35.405Z,924.15
2016-10-20T02:21:52.119Z,924.17
2016-10-20T02:22:08.834Z,924.18
2016-10-20T02:22:25.560Z,924.17
2016-10-20T02:22:42.271Z,924.13
2016-10-20T02:22:58.973Z,924.17
2016-10-20T02:23:16.217Z,924.14
2016-10-20T02:23:32.926Z,924.12
2016-10-20T02:23:49.663Z,924.1
2016-10-20T02:24:06.348Z,924.07
2016-10-20T02:24:23.054Z,924.09
2016-10-20T02:24:39.741Z,924.08
2016-10-20T02:24:56.519Z,924.04
2016-10-20T02:25:13.731Z,924.08
2016-10-20T02:25:30.512Z,924.04
2016-10-20T02:25:47.239Z,924.08
2016-10-20T02:26:03.984Z,924.04
2016-10-20T02:26:20.695Z,924.03
2016-10-20T02:26:38.507Z,924.03
2016-10-20T02:26:55.221Z,924
2016-10-20T02:27:11.973Z,924
2016-10-20T02:27:28.701Z,924
2016-10-20T02:27:45.417Z,924
2016-10-20T02:28:02.138Z,924.02
2016-10-20T02:28:19.201Z,924.03
2016-10-20T02:28:36.121Z,924.02
2016-10-20T02:28:52.827Z,924.01
2016-10-20T02:29:09.548Z,924.02
2016-10-20T02:29:26.259Z,923.92
2016-10-20T02:29:42.987Z,923.94
2016-10-20T02:29:59.715Z,924
2016-10-20T02:30:16.446Z,924.02
2016-10-20T02:30:33.150Z,923.98
2016-10-20T02:30:50.371Z,923.98
2016-10-20T02:31:07.069Z,923.96
2016-10-20T02:31:23.784Z,923.98
2016-10-20T02:31:40.689Z,923.96
2016-10-20T02:31:57.393Z,923.95
2016-10-20T02:32:14.083Z,923.97
2016-10-20T02:32:30.794Z,923.95
2016-10-20T02:32:47.497Z,923.96
2016-10-20T02:33:04.191Z,923.99
2016-10-20T02:33:20.905Z,923.92
2016-10-20T02:33:37.613Z,923.93
2016-10-20T02:33:54.315Z,923.98
2016-10-20T02:34:11.028Z,923.95
2016-10-20T02:34:27.749Z,923.98
2016-10-20T02:34:44.476Z,923.97
2016-10-20T02:35:01.171Z,923.97
2016-10-20T02:35:17.895Z,923.96
2016-10-20T02:35:34.622Z,924
2016-10-20T02:35:51.318Z,923.97
2016-10-20T02:36:08.026Z,924
2016-10-20T02:36:24.791Z,924.01
2016-10-20T02:36:41.751Z,924
2016-10-20T02:36:58.462Z,924.04
2016-10-20T02:37:15.189Z,924
2016-10-20T02:37:31.894Z,924.05
2016-10-20T02:37:48.613Z,924.04
2016-10-20T02:38:05.313Z,924.01
2016-10-20T02:38:22.059Z,924
2016-10-20T02:38:38.823Z,924.04
2016-10-20T02:38:55.564Z,924.03
2016-10-20T02:39:12.292Z,924.04
2016-10-20T02:39:29.521Z,924
2016-10-20T02:39:46.227Z,923.97
2016-10-20T02:40:03.452Z,924
2016-10-20T02:40:20.177Z,923.99
2016-10-20T02:40:36.917Z,923.96
2016-10-20T02:40:54.500Z,923.99
2016-10-20T02:41:11.218Z,923.97
2016-10-20T02:41:28.443Z,923.99
2016-10-20T02:41:45.227Z,923.98
2016-10-20T02:42:01.949Z,923.98
2016-10-20T02:42:18.653Z,923.96
2016-10-20T02:42:35.369Z,923.99
2016-10-20T02:42:52.092Z,923.97
2016-10-20T02:43:08.817Z,923.99
2016-10-20T02:43:25.535Z,923.96
2016-10-20T02:43:42.252Z,923.92
2016-10-20T02:43:58.987Z,923.98
2016-10-20T02:44:15.708Z,923.92
2016-10-20T02:44:32.464Z,923.95
2016-10-20T02:44:49.169Z,923.93
2016-10-20T02:45:05.885Z,923.94
2016-10-20T02:45:22.602Z,923.96
2016-10-20T02:45:39.347Z,923.95
2016-10-20T02:45:56.278Z,923.92
2016-10-20T02:46:12.993Z,923.94
2016-10-20T02:46:30.226Z,923.94
2016-10-20T02:46:46.948Z,923.97
2016-10-20T02:47:03.678Z,923.93
2016-10-20T02:47:20.395Z,923.94
2016-10-20T02:47:37.150Z,923.97
2016-10-20T02:47:53.878Z,923.94
2016-10-20T02:48:10.604Z,923.93
2016-10-20T02:48:27.320Z,923.92
2016-10-20T02:48:44.037Z,923.95
2016-10-20T02:49:00.810Z,923.94
2016-10-20T02:49:17.523Z,923.95
2016-10-20T02:49:34.216Z,923.92
2016-10-20T02:49:50.963Z,923.94
2016-10-20T02:50:08.196Z,923.94
2016-10-20T02:50:24.907Z,923.96
2016-10-20T02:50:41.612Z,923.96
2016-10-20T02:50:58.382Z,923.99
2016-10-20T02:51:15.111Z,923.99
2016-10-20T02:51:31.816Z,924
2016-10-20T02:51:48.535Z,924
2016-10-20T02:52:05.775Z,923.96
2016-10-20T02:52:22.716Z,923.94
2016-10-20T02:52:39.444Z,923.96
2016-10-20T02:52:56.153Z,923.99
2016-10-20T02:53:12.879Z,923.99
2016-10-20T02:53:29.596Z,924.02
2016-10-20T02:53:46.349Z,924.05
2016-10-20T02:54:03.042Z,924.04
2016-10-20T02:54:19.762Z,923.99
2016-10-20T02:54:36.513Z,924.02
2016-10-20T02:54:53.210Z,924.04
2016-10-20T02:55:24.426Z,924.01
2016-10-20T02:55:41.176Z,924.05
2016-10-20T02:55:57.924Z,924.06
2016-10-20T02:56:14.667Z,924.03
2016-10-20T02:56:31.438Z,924.02
2016-10-20T02:56:48.156Z,923.99
2016-10-20T02:57:05.073Z,924.01
2016-10-20T02:57:21.793Z,924.06
2016-10-20T02:57:38.479Z,924.04
2016-10-20T02:57:55.194Z,924.06
2016-10-20T02:58:11.987Z,924.04
2016-10-20T02:58:28.700Z,924.06
2016-10-20T02:58:45.432Z,924.07
2016-10-20T02:59:02.206Z,924.04
2016-10-20T02:59:18.912Z,924.06
2016-10-20T02:59:36.148Z,924.03
2016-10-20T02:59:52.847Z,924.03
2016-10-20T03:00:09.569Z,924.01
2016-10-20T03:00:26.283Z,924.02
2016-10-20T03:00:43.033Z,923.99
2016-10-20T03:00:59.880Z,924
2016-10-20T03:01:17.513Z,923.98
2016-10-20T03:01:34.229Z,923.97
2016-10-20T03:01:51.069Z,923.92
2016-10-20T03:02:07.800Z,923.98
2016-10-20T03:02:24.533Z,923.99
2016-10-20T03:02:41.335Z,923.97
2016-10-20T03:02:58.035Z,923.99
2016-10-20T03:03:14.799Z,923.99
2016-10-20T03:03:31.518Z,923.99
2016-10-20T03:03:48.224Z,924.03
2016-10-20T03:04:04.936Z,923.97
2016-10-20T03:04:22.172Z,924.03
2016-10-20T03:04:38.968Z,924.05
2016-10-20T03:04:55.708Z,923.96
2016-10-20T03:05:12.407Z,923.99
2016-10-20T03:05:29.168Z,924
2016-10-20T03:05:45.868Z,923.99
2016-10-20T03:06:02.582Z,924.01
2016-10-20T03:06:19.309Z,924.02
2016-10-20T03:06:36.060Z,924.04
2016-10-20T03:06:52.785Z,924.05
2016-10-20T03:07:09.497Z,924.05
2016-10-20T03:07:26.741Z,924.07
2016-10-20T03:07:43.460Z,924.09
2016-10-20T03:08:00.162Z,924.07
2016-10-20T03:08:17.386Z,924.07
2016-10-20T03:08:34.133Z,924.05
2016-10-20T03:08:50.832Z,924.03
2016-10-20T03:09:07.558Z,924.03
2016-10-20T03:09:24.308Z,924.06
2016-10-20T03:09:41.028Z,924.05
2016-10-20T03:09:57.795Z,924.02
2016-10-20T03:10:29.014Z,924.02
2016-10-20T03:10:45.785Z,924.08
2016-10-20T03:11:02.485Z,924.11
2016-10-20T03:11:19.224Z,924.06
2016-10-20T03:11:35.952Z,924.09
2016-10-20T03:11:52.781Z,924.02
2016-10-20T03:12:10.001Z,924.05
2016-10-20T03:12:26.725Z,924.1
2016-10-20T03:12:43.439Z,924.05
2016-10-20T03:13:00.211Z,924.06
2016-10-20T03:13:16.932Z,924.05
2016-10-20T03:13:33.672Z,924.02
2016-10-20T03:13:50.410Z,924.03
2016-10-20T03:14:07.122Z,924.08
2016-10-20T03:14:23.879Z,924.02
2016-10-20T03:14:40.647Z,924.02
2016-10-20T03:14:57.345Z,924.01
2016-10-20T03:15:14.071Z,924.04
2016-10-20T03:15:30.808Z,923.98
2016-10-20T03:15:47.526Z,923.99
2016-10-20T03:16:04.259Z,923.96
2016-10-20T03:16:20.960Z,924
2016-10-20T03:16:37.666Z,923.98
2016-10-20T03:16:54.370Z,923.98
2016-10-20T03:17:11.579Z,923.99
2016-10-20T03:17:28.287Z,923.95
2016-10-20T03:17:45.002Z,923.94
2016-10-20T03:18:01.724Z,923.99
2016-10-20T03:18:18.423Z,923.96
2016-10-20T03:18:35.148Z,923.93
2016-10-20T03:18:51.848Z,923.95
2016-10-20T03:19:08.560Z,923.91
2016-10-20T03:19:25.277Z,923.96
2016-10-20T03:19:42.012Z,923.96
2016-10-20T03:19:58.738Z,923.92
2016-10-20T03:20:15.441Z,923.88
2016-10-20T03:20:32.160Z,923.91
2016-10-20T03:20:48.907Z,923.91
2016-10-20T03:21:05.670Z,923.88
2016-10-20T03:21:22.351Z,923.89
2016-10-20T03:21:39.113Z,923.91
2016-10-20T03:21:55.841Z,923.95
2016-10-20T03:22:12.549Z,923.91
2016-10-20T03:22:29.258Z,923.9
2016-10-20T03:22:45.964Z,923.86
2016-10-20T03:23:02.666Z,923.88
2016-10-20T03:23:19.372Z,923.9
2016-10-20T03:23:36.100Z,923.86
2016-10-20T03:23:52.805Z,923.88
2016-10-20T03:24:09.519Z,923.89
2016-10-20T03:24:26.423Z,923.86
2016-10-20T03:24:43.664Z,923.87
2016-10-20T03:25:00.384Z,923.86
2016-10-20T03:25:17.088Z,923.86
2016-10-20T03:25:33.806Z,923.81
2016-10-20T03:25:50.582Z,923.84
2016-10-20T03:26:07.290Z,923.83
2016-10-20T03:26:24.017Z,923.86
2016-10-20T03:26:40.726Z,923.84
2016-10-20T03:26:57.521Z,923.82
2016-10-20T03:27:14.260Z,923.83
2016-10-20T03:27:30.959Z,923.81
2016-10-20T03:27:48.242Z,923.78
2016-10-20T03:28:04.996Z,923.8
2016-10-20T03:28:21.727Z,923.79
2016-10-20T03:28:38.482Z,923.8
2016-10-20T03:28:55.215Z,923.77
2016-10-20T03:29:11.968Z,923.79
2016-10-20T03:29:28.740Z,923.76
2016-10-20T03:29:45.999Z,923.77
2016-10-20T03:30:02.744Z,923.79
2016-10-20T03:30:19.546Z,923.77
2016-10-20T03:30:36.262Z,923.77
2016-10-20T03:30:53.745Z,923.76
2016-10-20T03:31:10.534Z,923.75
2016-10-20T03:31:27.271Z,923.75
2016-10-20T03:31:44.024Z,923.75